Главная страница
METAR-TAF:

METAR-TAF

Аэропорты :

Раротонга, Острова Кука

широта: 21-12S, долгота: 159-49W, высота над уровнем моря: 7 м

Текущие метеонаблюдения

Эта сводка был подготовлена 39 минут назад, в 03:00 UTC
Ветер 4 Узел от юго-западный
Температура 25°C
Влажность 65%
Давление 1012 hPa
Видимость 10 км и более
небольшая облачность на высоте 2500 фута

METAR: NCRG 150300Z 23004KT 9999 FEW025 25/18 Q1012

Время: 17:39 (03:39 UTC)

Прогноз

Эта сводка был подготовлена 4 часа и 39 минут назад, в 23:00 UTC
Прогноз действительный с 15-го 00 UTC до 15-го 24 UTC
Ветер 7 Узел от юго-западный
Видимость 10 км и более
Отдельные облака на высоте 2000 фута
Отдельные облака на высоте 10000 фута

TAF: NCRG 142300Z 1500/1524 23007KT 9999 SCT020 SCT100

Метеонаблюдения и прогнозы для более 4000 аэропортов (сводки METAR и TAF).

Имеющиеся станции представлены на карте желтыми и красными точками.

Чтобы увидеть название станции, наведите на нее мышь.

Затем щелкните, чтобы увидеть метеонаблюдения и метеопрогнозы.

Управление картой: чтобы увеличить масштаб, щелкните зеленые кнопки с черным крестиком; чтобы уменьшить масштаб, щелкните зеленую кнопку с тире; для просмотра соседних карт щелкайте зеленые стрелки.


METAR-TAF: